Bookmark and Share
Track history (hours):
 

Independence

More information available from US FCC via Universal Licensing System and Coast Guard Vessel Documentation Center.

Last reported at 2014-Apr-19 11:34 UTC. Time now 2014-Apr-19 12:14 UTC.
Position N 37°48' W 122°22'.

Length 24 m; draft 4.9 m.

Type: Tug. MMSI: 367175860.

NotesDate/timePositionNaut miles runAvg speedWind from/ knotsBaromVisibWave heightAir tempDewpointWater temp
2014-Apr-19 11:34N 37°48' W 122°22'5 5.3
2014-Apr-19 10:33N 37°53' W 122°25'2 2.5
2014-Apr-19 09:33N 37°54' W 122°22'1 0.8
2014-Apr-19 08:33N 37°55' W 122°22'5 5.2
2014-Apr-19 07:34N 37°50' W 122°22'3 2.6
2014-Apr-19 06:34N 37°49' W 122°19'0 0.0
2014-Apr-19 05:33N 37°49' W 122°19'0 0.0
2014-Apr-19 04:33N 37°49' W 122°19'0 0.0
2014-Apr-19 03:33N 37°49' W 122°19'0 0.0
2014-Apr-19 02:33N 37°49' W 122°19'1 0.6
2014-Apr-19 01:33N 37°49' W 122°19'0 0.2
2014-Apr-19 00:33N 37°49' W 122°19'0 0.4
2014-Apr-18 23:33N 37°49' W 122°19'0 0.0
2014-Apr-18 22:33N 37°49' W 122°19'0 0.0
2014-Apr-18 21:33N 37°49' W 122°19'0 0.0
2014-Apr-18 20:33N 37°49' W 122°19'0 0.0
2014-Apr-18 19:33N 37°49' W 122°19'0 0.0
2014-Apr-18 18:33N 37°49' W 122°19'0 0.0
2014-Apr-18 17:33N 37°49' W 122°19'0 0.0
2014-Apr-18 16:33N 37°49' W 122°19'0 0.0
2014-Apr-18 15:33N 37°49' W 122°19'0 0.0
2014-Apr-18 14:34N 37°49' W 122°19'0 0.0
2014-Apr-18 13:33N 37°49' W 122°19'2 1.6
2014-Apr-18 12:33N 37°48' W 122°19'0 0.1
2014-Apr-18 11:33N 37°48' W 122°19'6 5.6
2014-Apr-18 10:33N 37°52' W 122°24'3 3.4
2014-Apr-18 09:33N 37°55' W 122°22'0 0.0
2014-Apr-18 08:33N 37°55' W 122°22'0 0.0
2014-Apr-18 07:30N 37°55' W 122°22'0 0.0
2014-Apr-18 06:33N 37°55' W 122°22'0 0.0
2014-Apr-18 05:33N 37°55' W 122°22'0 0.0
2014-Apr-18 04:33N 37°55' W 122°22'0 0.0
2014-Apr-18 03:33N 37°55' W 122°22'0 0.0
2014-Apr-18 02:33N 37°55' W 122°22'3 3.3
2014-Apr-18 01:33N 37°52' W 122°24'5 5.2
2014-Apr-18 00:33N 37°49' W 122°19'0 0.0
2014-Apr-17 23:34N 37°49' W 122°19'0 0.0
2014-Apr-17 22:34N 37°49' W 122°19'1 1.2
2014-Apr-17 21:34N 37°49' W 122°20'0 0.3
2014-Apr-17 20:34N 37°49' W 122°20'2 1.8
2014-Apr-17 19:33N 37°48' W 122°18'0 0.0
2014-Apr-17 18:34N 37°48' W 122°18'0 0.0
2014-Apr-17 17:33N 37°48' W 122°18'0 0.0
2014-Apr-17 16:33N 37°48' W 122°18'1 0.5
2014-Apr-17 15:34N 37°48' W 122°17'2 1.9
2014-Apr-17 14:33N 37°48' W 122°20'1 0.8
2014-Apr-17 13:33N 37°49' W 122°20'0 0.0
2014-Apr-17 12:34N 37°49' W 122°20'0 0.0
2014-Apr-17 11:33N 37°49' W 122°20'0 0.0
2014-Apr-17 10:33N 37°49' W 122°20'0 0.1
2014-Apr-17 09:34N 37°49' W 122°20'1 1.1
2014-Apr-17 08:33N 37°49' W 122°19'0 0.0
2014-Apr-17 07:33N 37°49' W 122°19'0 0.0
2014-Apr-17 06:33N 37°49' W 122°19'0 0.0
2014-Apr-17 05:33N 37°49' W 122°19'0 0.0
2014-Apr-17 04:33N 37°49' W 122°19'0 0.0
2014-Apr-17 03:33N 37°49' W 122°19'0 0.0
2014-Apr-17 02:33N 37°49' W 122°19'0 0.0
2014-Apr-17 01:33N 37°49' W 122°19'0 0.3
2014-Apr-17 00:33N 37°49' W 122°19'0 0.3
2014-Apr-16 23:33N 37°49' W 122°19'0 0.0
2014-Apr-16 22:34N 37°49' W 122°19'0 0.0
2014-Apr-16 21:34N 37°49' W 122°19'0 0.0
2014-Apr-16 20:33N 37°49' W 122°19'0 0.0
2014-Apr-16 19:34N 37°49' W 122°19'0 0.0
2014-Apr-16 18:33N 37°49' W 122°19'0 0.0
2014-Apr-16 17:33N 37°49' W 122°19'0 0.0
2014-Apr-16 16:33N 37°49' W 122°19'0 0.0
2014-Apr-16 15:33N 37°49' W 122°19'0 0.0
2014-Apr-16 14:33N 37°49' W 122°19'1 1.2
2014-Apr-16 13:34N 37°49' W 122°20'0 0.1
2014-Apr-16 12:34N 37°49' W 122°20'0 0.1
2014-Apr-16 11:34N 37°49' W 122°20'0 0.0
2014-Apr-16 10:33N 37°49' W 122°20'0 0.0
2014-Apr-16 09:33N 37°49' W 122°20'0 0.0
2014-Apr-16 08:33N 37°49' W 122°20'0 0.0
2014-Apr-16 07:33N 37°49' W 122°20'3 3.5
2014-Apr-16 06:33N 37°51' W 122°23'9 8.8
2014-Apr-16 05:32N 38°00' W 122°25'1010.0
2014-Apr-16 04:33N 38°03' W 122°13'2 2.4
2014-Apr-16 03:33N 38°04' W 122°16'4 3.7
2014-Apr-16 02:23N 38°03' W 122°11'15 1.5
2014-Apr-15 16:33N 38°02' W 121°52'2 1.9
2014-Apr-15 15:17N 38°03' W 121°55'9 0.9
2014-Apr-15 05:33N 38°03' W 122°06'0 0.0
2014-Apr-15 03:31N 38°03' W 122°06'6 0.2
2014-Apr-13 20:31N 38°04' W 122°13'1111.0
2014-Apr-13 19:31N 37°59' W 122°25'8 8.0
2014-Apr-13 18:33N 37°51' W 122°23'8 7.8
2014-Apr-13 17:33N 37°47' W 122°15'2 1.7
2014-Apr-13 16:33N 37°48' W 122°17'0 0.0
2014-Apr-13 15:33N 37°48' W 122°17'3 2.7
2014-Apr-13 14:33N 37°49' W 122°20'1 1.1
2014-Apr-13 13:33N 37°48' W 122°19'2 1.5
2014-Apr-13 12:34N 37°48' W 122°17'4 3.6
2014-Apr-13 11:33N 37°48' W 122°22'3 2.7
2014-Apr-13 10:33N 37°49' W 122°19'0 0.0
2014-Apr-13 09:33N 37°49' W 122°19'0 0.0
2014-Apr-13 08:33N 37°49' W 122°19'0 0.0
2014-Apr-13 07:33N 37°49' W 122°19'0 0.0
2014-Apr-13 06:33N 37°49' W 122°19'0 0.0
2014-Apr-13 05:33N 37°49' W 122°19'0 0.0
2014-Apr-13 04:33N 37°49' W 122°19'0 0.0
2014-Apr-13 03:33N 37°49' W 122°19'0 0.3
2014-Apr-13 02:34N 37°49' W 122°19'2 1.8
2014-Apr-13 01:34N 37°48' W 122°18'1 0.7
2014-Apr-13 00:33N 37°48' W 122°19'2 1.6
2014-Apr-12 23:33N 37°49' W 122°19'0 0.0
2014-Apr-12 22:33N 37°49' W 122°19'0 0.0
2014-Apr-12 21:33N 37°49' W 122°19'0 0.0
2014-Apr-12 20:33N 37°49' W 122°19'0 0.0
2014-Apr-12 19:33N 37°49' W 122°19'0 0.0
2014-Apr-12 18:33N 37°49' W 122°19'0 0.0
2014-Apr-12 17:33N 37°49' W 122°19'0 0.0
2014-Apr-12 16:33N 37°49' W 122°19'0 0.0
2014-Apr-12 15:33N 37°49' W 122°19'0 0.0
2014-Apr-12 14:33N 37°49' W 122°19'1 0.8
2014-Apr-12 13:33N 37°49' W 122°19'1 1.0
2014-Apr-12 12:34N 37°48' W 122°21'2 1.6
2014-Apr-12 11:33N 37°49' W 122°19'0 0.0
2014-Apr-12 10:33N 37°49' W 122°19'0 0.0
2014-Apr-12 09:33N 37°49' W 122°19'0 0.0
2014-Apr-12 08:33N 37°49' W 122°19'0 0.0
2014-Apr-12 07:33N 37°49' W 122°19'0 0.0
2014-Apr-12 06:33N 37°49' W 122°19'0 0.0
2014-Apr-12 05:33N 37°49' W 122°19'0 0.0
2014-Apr-12 04:33N 37°49' W 122°19'0 0.0
2014-Apr-12 03:33N 37°49' W 122°19'0 0.0
2014-Apr-12 02:33N 37°49' W 122°19'0 0.0
2014-Apr-12 01:33N 37°49' W 122°19'0 0.0
2014-Apr-12 00:33N 37°49' W 122°19'2 1.8
2014-Apr-11 23:34N 37°48' W 122°18'2 1.8
2014-Apr-11 22:33N 37°49' W 122°19'0 0.0
2014-Apr-11 21:33N 37°49' W 122°19'0 0.0
2014-Apr-11 20:33N 37°49' W 122°19'0 0.0
2014-Apr-11 19:33N 37°49' W 122°19'0 0.0
2014-Apr-11 18:33N 37°49' W 122°19'0 0.0
2014-Apr-11 17:33N 37°49' W 122°19'0 0.0
2014-Apr-11 16:33N 37°49' W 122°19'0 0.0
2014-Apr-11 15:33N 37°49' W 122°19'0 0.0
2014-Apr-11 14:33N 37°49' W 122°19'0 0.0
2014-Apr-11 13:33N 37°49' W 122°19'2 1.5
2014-Apr-11 12:33N 37°48' W 122°19'2 1.5
2014-Apr-11 11:33N 37°48' W 122°17'3 2.5
2014-Apr-11 10:34N 37°49' W 122°20'1 1.3
2014-Apr-11 09:33N 37°49' W 122°19'0 0.0
2014-Apr-11 08:33N 37°49' W 122°19'0 0.0
2014-Apr-11 07:33N 37°49' W 122°19'0 0.0
2014-Apr-11 06:33N 37°49' W 122°19'0 0.0
2014-Apr-11 05:33N 37°49' W 122°19'0 0.0
2014-Apr-11 04:33N 37°49' W 122°19'0 0.0
2014-Apr-11 03:33N 37°49' W 122°19'1 1.3
2014-Apr-11 02:33N 37°49' W 122°20'0 0.4
2014-Apr-11 01:33N 37°49' W 122°20'0 0.2
2014-Apr-11 00:33N 37°49' W 122°19'0 0.0
2014-Apr-10 23:33N 37°49' W 122°19'0 0.2
2014-Apr-10 22:33N 37°49' W 122°20'1 0.6
2014-Apr-10 21:34N 37°49' W 122°19'0 0.4
2014-Apr-10 20:33N 37°49' W 122°19'0 0.0
2014-Apr-10 19:33N 37°49' W 122°19'0 0.0
2014-Apr-10 18:33N 37°49' W 122°19'0 0.0
2014-Apr-10 17:33N 37°49' W 122°19'0 0.0
2014-Apr-10 16:33N 37°49' W 122°19'0 0.0
2014-Apr-10 15:33N 37°49' W 122°19'0 0.0
2014-Apr-10 14:33N 37°49' W 122°19'0 0.0
2014-Apr-10 13:33N 37°49' W 122°19'2 1.6
2014-Apr-10 12:34N 37°48' W 122°19'1 1.5
2014-Apr-10 11:33N 37°48' W 122°18'2 2.0
2014-Apr-10 10:33N 37°49' W 122°19'0 0.0
2014-Apr-10 09:33N 37°49' W 122°19'0 0.0
2014-Apr-10 08:33N 37°49' W 122°19'0 0.0
2014-Apr-10 07:33N 37°49' W 122°19'0 0.0
2014-Apr-10 06:33N 37°49' W 122°19'0 0.0
2014-Apr-10 05:33N 37°49' W 122°19'0 0.0
2014-Apr-10 04:33N 37°49' W 122°19'0 0.0
2014-Apr-10 03:33N 37°49' W 122°19'0 0.0
2014-Apr-10 02:33N 37°49' W 122°19'0 0.0
2014-Apr-10 01:33N 37°49' W 122°19'0 0.0
2014-Apr-10 00:33N 37°49' W 122°19'0 0.5
2014-Apr-09 23:33N 37°49' W 122°19'0 0.3
2014-Apr-09 22:33N 37°49' W 122°19'1 1.0
2014-Apr-09 21:33N 37°48' W 122°21'0 0.0
2014-Apr-09 20:33N 37°48' W 122°21'9 8.6
2014-Apr-09 19:33N 37°56' W 122°26'1010.1
2014-Apr-09 18:33N 38°03' W 122°17'5 2.5
2014-Apr-09 16:32N 38°03' W 122°11'3 2.7
2014-Apr-09 15:33N 38°04' W 122°14'  

Dump ship's entire track history

sailing weather and tide predictions

Independence — WDD6659 — position and weather